createdAt,value
2018-04-21T00:01:27.533Z,10.40
2018-04-21T00:02:59.345Z,11.60
2018-04-21T00:04:31.156Z,13.10
2018-04-21T00:06:02.967Z,12.90
2018-04-21T00:07:34.779Z,12.20
2018-04-21T00:09:06.590Z,12.20
2018-04-21T00:10:38.401Z,12.20
2018-04-21T00:12:10.212Z,11.40
2018-04-21T00:13:42.024Z,13.10
2018-04-21T00:15:13.935Z,13.50
2018-04-21T00:16:45.650Z,13.00
2018-04-21T00:18:17.458Z,12.70
2018-04-21T00:19:49.269Z,13.50
2018-04-21T00:21:21.079Z,13.70
2018-04-21T00:22:52.891Z,13.50
2018-04-21T00:24:24.701Z,14.30
2018-04-21T00:25:56.513Z,14.00
2018-04-21T00:27:28.323Z,13.30
2018-04-21T00:29:00.135Z,14.80
2018-04-21T00:30:31.945Z,14.20
2018-04-21T00:32:03.756Z,15.50
2018-04-21T00:33:35.668Z,13.80
2018-04-21T00:35:07.378Z,14.20
2018-04-21T00:36:39.189Z,15.10
2018-04-21T00:38:10.999Z,15.40
2018-04-21T00:39:42.960Z,15.80
2018-04-21T00:41:14.621Z,15.20
2018-04-21T00:42:46.434Z,15.00
2018-04-21T00:44:18.243Z,14.90
2018-04-21T00:45:50.054Z,15.50
2018-04-21T00:47:21.866Z,15.10
2018-04-21T00:50:25.496Z,15.70
2018-04-21T00:51:57.397Z,16.30
2018-04-21T00:53:29.113Z,15.10
2018-04-21T00:55:00.924Z,16.10
2018-04-21T00:56:32.729Z,16.60
2018-04-21T00:58:04.540Z,16.40
2018-04-21T00:59:36.351Z,16.70
2018-04-21T01:01:08.161Z,16.80
2018-04-21T01:02:39.972Z,16.30
2018-04-21T01:04:11.783Z,15.80
2018-04-21T01:05:43.594Z,16.40
2018-04-21T01:07:15.404Z,15.90
2018-04-21T01:08:47.215Z,16.20
2018-04-21T01:10:19.133Z,18.20
2018-04-21T01:11:50.836Z,21.20
2018-04-21T01:13:22.647Z,24.70
2018-04-21T01:14:54.459Z,24.50
2018-04-21T01:16:26.268Z,24.20
2018-04-21T01:17:58.078Z,22.40
2018-04-21T01:19:29.891Z,21.30
2018-04-21T01:21:01.703Z,23.80
2018-04-21T01:22:33.511Z,22.30
2018-04-21T01:24:05.328Z,23.70
2018-04-21T01:25:37.132Z,24.50
2018-04-21T01:27:08.942Z,24.30
2018-04-21T01:28:40.902Z,28.50
2018-04-21T01:30:12.563Z,26.30
2018-04-21T01:31:44.373Z,24.30
2018-04-21T01:33:16.185Z,26.90
2018-04-21T01:34:48.095Z,24.90
2018-04-21T01:36:19.805Z,23.40
2018-04-21T01:37:51.616Z,22.40
2018-04-21T01:39:23.425Z,24.20
2018-04-21T01:40:55.387Z,24.80
2018-04-21T01:42:27.047Z,27.30
2018-04-21T01:43:58.857Z,24.60
2018-04-21T01:45:30.667Z,27.30
2018-04-21T01:47:02.578Z,31.20
2018-04-21T01:48:34.287Z,32.50
2018-04-21T01:50:06.102Z,30.00
2018-04-21T01:51:37.908Z,28.80
2018-04-21T01:53:09.719Z,28.50
2018-04-21T01:54:41.529Z,30.10
2018-04-21T01:56:13.339Z,29.30
2018-04-21T01:57:45.151Z,28.10
2018-04-21T01:59:16.960Z,29.40
2018-04-21T02:00:48.770Z,29.40
2018-04-21T02:02:20.584Z,30.80
2018-04-21T02:03:52.390Z,29.30
2018-04-21T02:05:24.304Z,30.80
2018-04-21T02:06:56.011Z,29.60
2018-04-21T02:08:27.821Z,29.60
2018-04-21T02:09:59.631Z,29.80
2018-04-21T02:11:31.443Z,30.00
2018-04-21T02:13:03.253Z,29.30
2018-04-21T02:14:35.062Z,29.70
2018-04-21T02:16:06.873Z,31.80
2018-04-21T02:17:38.683Z,31.50
2018-04-21T02:19:10.493Z,30.60
2018-04-21T02:20:42.303Z,33.70
2018-04-21T02:22:14.114Z,39.90
2018-04-21T02:23:46.324Z,36.70
2018-04-21T02:25:17.733Z,38.60
2018-04-21T02:26:49.543Z,32.60
2018-04-21T02:28:21.353Z,34.80
2018-04-21T02:29:53.163Z,33.70
2018-04-21T02:31:24.973Z,34.10
2018-04-21T02:32:56.784Z,35.70
2018-04-21T02:34:28.593Z,34.30
2018-04-21T02:36:00.675Z,33.10
2018-04-21T02:37:32.214Z,33.70
2018-04-21T02:39:04.023Z,34.80
2018-04-21T02:40:35.834Z,35.70
2018-04-21T02:42:07.744Z,35.20
2018-04-21T02:43:39.658Z,36.60
2018-04-21T02:45:11.264Z,36.20
2018-04-21T02:46:43.076Z,39.50
2018-04-21T02:48:14.883Z,42.90
2018-04-21T02:49:46.695Z,44.50
2018-04-21T02:51:18.512Z,38.40
2018-04-21T02:52:50.515Z,40.60
2018-04-21T02:54:22.122Z,41.30
2018-04-21T02:55:53.932Z,44.30
2018-04-21T02:57:25.742Z,43.70
2018-04-21T02:58:57.552Z,44.90
2018-04-21T03:00:29.461Z,45.70
2018-04-21T03:02:01.173Z,42.90
2018-04-21T03:03:32.981Z,42.30
2018-04-21T03:05:04.793Z,42.10
2018-04-21T03:06:36.851Z,42.30
2018-04-21T03:08:08.411Z,39.60
2018-04-21T03:09:40.221Z,41.40
2018-04-21T03:11:12.031Z,41.70
2018-04-21T03:12:43.843Z,43.90
2018-04-21T03:14:15.653Z,44.70
2018-04-21T03:15:47.462Z,47.60
2018-04-21T03:17:19.273Z,49.30
2018-04-21T03:18:51.487Z,52.20
2018-04-21T03:20:22.893Z,50.70
2018-04-21T03:21:54.702Z,49.00
2018-04-21T03:23:26.512Z,51.40
2018-04-21T03:24:58.322Z,47.40
2018-04-21T03:26:30.132Z,50.20
2018-04-21T03:28:01.943Z,49.00
2018-04-21T03:29:33.752Z,43.90
2018-04-21T03:31:05.560Z,44.20
2018-04-21T03:32:37.371Z,44.70
2018-04-21T03:34:09.181Z,43.90
2018-04-21T03:35:40.991Z,44.80
2018-04-21T03:37:12.908Z,45.90
2018-04-21T03:38:44.612Z,47.10
2018-04-21T03:40:16.420Z,49.20
2018-04-21T03:41:48.229Z,50.00
2018-04-21T03:43:20.039Z,53.80
2018-04-21T03:44:51.852Z,52.00
2018-04-21T03:46:23.660Z,54.10
2018-04-21T03:47:55.469Z,49.20
2018-04-21T03:49:27.279Z,47.20
2018-04-21T03:50:59.137Z,55.20
2018-04-21T03:52:30.898Z,54.70
2018-04-21T03:54:02.708Z,54.80
2018-04-21T03:55:34.618Z,88.10
2018-04-21T03:57:06.328Z,97.70
2018-04-21T03:58:38.137Z,92.50
2018-04-21T04:00:09.947Z,70.90
2018-04-21T04:03:13.567Z,65.00
2018-04-21T04:04:45.377Z,81.50
2018-04-21T04:06:17.187Z,79.60
2018-04-21T04:07:48.996Z,69.60
2018-04-21T04:09:20.806Z,71.40
2018-04-21T04:10:52.618Z,66.80
2018-04-21T04:12:24.426Z,60.10
2018-04-21T04:13:56.235Z,61.60
2018-04-21T04:15:28.145Z,65.10
2018-04-21T04:16:59.855Z,74.70
2018-04-21T04:18:31.666Z,71.80
2018-04-21T04:20:03.478Z,71.20
2018-04-21T04:21:35.285Z,80.30
2018-04-21T04:23:07.096Z,92.00
2018-04-21T04:24:38.905Z,114.90
2018-04-21T04:26:10.715Z,135.60
2018-04-21T04:27:42.524Z,145.50
2018-04-21T04:29:14.334Z,150.10
2018-04-21T04:30:46.143Z,125.60
2018-04-21T04:32:17.952Z,117.40
2018-04-21T04:33:49.962Z,124.80
2018-04-21T04:35:21.571Z,106.60
2018-04-21T04:36:53.386Z,99.70
2018-04-21T04:38:25.191Z,118.80
2018-04-21T04:39:57.252Z,126.30
2018-04-21T04:41:28.813Z,116.70
2018-04-21T04:43:00.620Z,114.40
2018-04-21T04:44:32.431Z,111.90
2018-04-21T04:46:04.390Z,103.70
2018-04-21T04:47:36.049Z,111.30
2018-04-21T04:49:07.864Z,106.10
2018-04-21T04:50:39.668Z,113.90
2018-04-21T04:52:12.028Z,110.20
2018-04-21T04:53:43.287Z,103.60
2018-04-21T04:55:15.100Z,111.90
2018-04-21T04:56:46.912Z,116.00
2018-04-21T04:58:18.716Z,114.80
2018-04-21T04:59:50.525Z,127.70
2018-04-21T05:01:22.336Z,122.60
2018-04-21T05:02:54.145Z,118.60
2018-04-21T05:04:25.954Z,115.40
2018-04-21T05:05:57.763Z,114.90
2018-04-21T05:07:29.573Z,117.50
2018-04-21T05:09:01.382Z,123.30
2018-04-21T05:10:33.541Z,126.50
2018-04-21T05:12:05.000Z,132.30
2018-04-21T05:13:36.810Z,128.50
2018-04-21T05:15:08.619Z,122.90
2018-04-21T05:16:40.578Z,126.70
2018-04-21T05:18:12.242Z,136.70
2018-04-21T05:19:44.047Z,139.30
2018-04-21T05:21:15.856Z,135.20
2018-04-21T05:22:47.665Z,143.70
2018-04-21T05:24:19.477Z,148.40
2018-04-21T05:25:51.284Z,148.20
2018-04-21T05:27:23.094Z,131.70
2018-04-21T05:28:55.004Z,129.20
2018-04-21T05:30:26.714Z,126.70
2018-04-21T05:31:58.523Z,125.20
2018-04-21T05:33:30.332Z,123.00
2018-04-21T05:35:02.142Z,129.30
2018-04-21T05:36:33.952Z,124.40
2018-04-21T05:38:05.760Z,118.00
2018-04-21T05:39:37.570Z,120.20
2018-04-21T05:41:09.629Z,128.00
2018-04-21T05:42:41.193Z,132.50
2018-04-21T05:44:12.998Z,130.10
2018-04-21T05:45:44.807Z,127.20
2018-04-21T05:47:16.716Z,144.50
2018-04-21T05:48:48.425Z,132.00
2018-04-21T05:50:20.235Z,136.20
2018-04-21T05:51:52.044Z,140.90
2018-04-21T05:53:23.859Z,141.10
2018-04-21T05:54:55.662Z,125.40
2018-04-21T05:56:27.472Z,106.10
2018-04-21T05:57:59.281Z,105.40
2018-04-21T05:59:31.090Z,113.30
2018-04-21T06:01:02.899Z,115.40
2018-04-21T06:02:34.708Z,111.80
2018-04-21T06:04:06.522Z,115.60
2018-04-21T06:05:38.527Z,114.60
2018-04-21T06:07:10.137Z,120.50
2018-04-21T06:08:41.946Z,122.60
2018-04-21T06:10:13.755Z,117.50
2018-04-21T06:11:45.564Z,118.90
2018-04-21T06:13:17.373Z,120.80
2018-04-21T06:14:49.182Z,117.70
2018-04-21T06:16:20.991Z,119.50
2018-04-21T06:17:52.950Z,112.80
2018-04-21T06:19:24.610Z,111.00
2018-04-21T06:20:56.421Z,113.00
2018-04-21T06:22:28.227Z,116.80
2018-04-21T06:24:00.137Z,119.00
2018-04-21T06:25:31.845Z,126.90
2018-04-21T06:27:03.655Z,115.90
2018-04-21T06:28:35.464Z,117.10
2018-04-21T06:30:07.274Z,124.80
2018-04-21T06:31:39.083Z,144.40
2018-04-21T06:33:10.891Z,152.70
2018-04-21T06:34:42.700Z,144.10
2018-04-21T06:36:14.509Z,151.50
2018-04-21T06:37:46.318Z,159.80
2018-04-21T06:39:18.127Z,140.70
2018-04-21T06:40:49.942Z,136.80
2018-04-21T06:42:21.849Z,116.40
2018-04-21T06:43:53.555Z,103.80
2018-04-21T06:45:25.364Z,121.50
2018-04-21T06:46:57.173Z,111.10
2018-04-21T06:48:28.982Z,112.90
2018-04-21T06:50:00.792Z,109.00
2018-04-21T06:51:32.601Z,108.80
2018-04-21T06:53:04.471Z,109.10
2018-04-21T06:54:36.219Z,133.60
2018-04-21T06:56:08.028Z,152.30
2018-04-21T06:57:39.837Z,130.70
2018-04-21T06:59:11.645Z,114.00
2018-04-21T07:00:43.555Z,111.90
2018-04-21T07:02:15.263Z,109.30
2018-04-21T07:03:47.073Z,108.50
2018-04-21T07:05:18.882Z,115.60
2018-04-21T07:06:50.993Z,114.40
2018-04-21T07:08:22.500Z,120.70
2018-04-21T07:09:54.309Z,115.50
2018-04-21T07:11:26.118Z,108.70
2018-04-21T07:12:57.927Z,107.00
2018-04-21T07:14:29.736Z,108.80
2018-04-21T07:16:01.547Z,110.50
2018-04-21T07:17:33.354Z,110.00
2018-04-21T07:19:05.263Z,109.30
2018-04-21T07:20:36.973Z,112.50
2018-04-21T07:22:08.783Z,122.20
2018-04-21T07:25:12.402Z,132.10
2018-04-21T07:26:44.208Z,117.40
2018-04-21T07:28:16.016Z,113.80
2018-04-21T07:29:47.825Z,107.10
2018-04-21T07:31:19.634Z,108.10
2018-04-21T07:34:23.252Z,104.30
2018-04-21T07:35:55.083Z,103.50
2018-04-21T07:37:27.070Z,109.30
2018-04-21T07:38:58.679Z,107.20
2018-04-21T07:40:30.487Z,107.00
2018-04-21T07:42:02.297Z,110.30
2018-04-21T07:43:34.106Z,109.60
2018-04-21T07:45:05.913Z,108.40
2018-04-21T07:46:37.726Z,108.80
2018-04-21T07:48:09.532Z,112.30
2018-04-21T07:49:41.341Z,110.90
2018-04-21T07:51:13.150Z,109.40
2018-04-21T07:52:44.959Z,108.50
2018-04-21T07:54:16.767Z,115.10
2018-04-21T07:55:48.677Z,114.30
2018-04-21T07:57:20.385Z,113.30
2018-04-21T07:58:52.194Z,106.30
2018-04-21T08:00:24.006Z,114.50
2018-04-21T08:01:55.813Z,113.60
2018-04-21T08:03:27.622Z,115.60
2018-04-21T08:04:59.428Z,112.30
2018-04-21T08:06:31.242Z,109.90
2018-04-21T08:08:03.146Z,113.50
2018-04-21T08:09:34.854Z,107.50
2018-04-21T08:11:06.663Z,102.60
2018-04-21T08:12:38.471Z,110.30
2018-04-21T08:14:10.382Z,101.70
2018-04-21T08:15:42.092Z,105.70
2018-04-21T08:17:13.897Z,105.60
2018-04-21T08:18:45.706Z,115.00
2018-04-21T08:20:17.515Z,112.80
2018-04-21T08:21:49.323Z,107.00
2018-04-21T08:23:21.132Z,115.50
2018-04-21T08:24:52.940Z,127.20
2018-04-21T08:26:24.748Z,99.00
2018-04-21T08:27:56.556Z,95.30
2018-04-21T08:29:28.371Z,103.10
2018-04-21T08:31:00.174Z,99.20
2018-04-21T08:32:32.083Z,98.30
2018-04-21T08:34:03.790Z,97.10
2018-04-21T08:35:35.599Z,95.90
2018-04-21T08:37:07.407Z,96.10
2018-04-21T08:38:39.316Z,96.60
2018-04-21T08:40:11.024Z,89.10
2018-04-21T08:41:42.832Z,98.40
2018-04-21T08:43:14.641Z,95.70
2018-04-21T08:44:46.699Z,93.70
2018-04-21T08:46:18.257Z,95.10
2018-04-21T08:47:50.065Z,99.60
2018-04-21T08:49:21.876Z,116.30
2018-04-21T08:50:53.935Z,115.10
2018-04-21T08:52:25.490Z,109.20
2018-04-21T08:53:57.297Z,103.30
2018-04-21T08:55:29.106Z,75.50
2018-04-21T08:57:00.914Z,79.40
2018-04-21T08:58:32.723Z,83.70
2018-04-21T09:00:04.532Z,86.40
2018-04-21T09:01:36.341Z,81.20
2018-04-21T09:03:08.151Z,88.10
2018-04-21T09:04:39.958Z,84.10
2018-04-21T09:06:11.766Z,73.80
2018-04-21T09:07:43.575Z,76.60
2018-04-21T09:09:15.584Z,85.20
2018-04-21T09:10:47.195Z,83.30
2018-04-21T09:12:19.001Z,83.80
2018-04-21T09:13:50.812Z,68.70
2018-04-21T09:15:22.869Z,72.20
2018-04-21T09:16:54.435Z,74.30
2018-04-21T09:18:26.235Z,73.30
2018-04-21T09:19:58.043Z,74.90
2018-04-21T09:21:29.852Z,76.70
2018-04-21T09:23:01.660Z,79.40
2018-04-21T09:24:33.468Z,83.60
2018-04-21T09:26:05.276Z,71.10
2018-04-21T09:27:37.890Z,73.20
2018-04-21T09:29:08.897Z,77.80
2018-04-21T09:30:40.701Z,81.30
2018-04-21T09:32:12.509Z,77.10
2018-04-21T09:33:44.324Z,75.20
2018-04-21T09:35:16.328Z,76.20
2018-04-21T09:36:47.935Z,75.20
2018-04-21T09:38:19.742Z,72.80
2018-04-21T09:39:51.652Z,82.70
2018-04-21T09:41:23.360Z,78.60
2018-04-21T09:42:55.168Z,77.20
2018-04-21T09:44:26.977Z,75.70
2018-04-21T09:45:59.137Z,80.10
2018-04-21T09:47:30.595Z,76.20
2018-04-21T09:49:02.405Z,75.00
2018-04-21T09:52:06.025Z,80.40
2018-04-21T09:53:37.835Z,83.80
2018-04-21T09:55:09.650Z,77.40
2018-04-21T09:56:41.456Z,72.80
2018-04-21T09:58:13.417Z,71.50
2018-04-21T09:59:45.079Z,67.80
2018-04-21T10:01:16.890Z,68.80
2018-04-21T10:02:48.701Z,71.80
2018-04-21T10:04:20.615Z,76.90
2018-04-21T10:05:52.328Z,69.50
2018-04-21T10:08:56.153Z,70.20
2018-04-21T10:10:28.168Z,66.70
2018-04-21T10:11:59.578Z,67.70
2018-04-21T10:13:31.390Z,72.30
2018-04-21T10:15:03.206Z,68.50
2018-04-21T10:16:35.270Z,65.20
2018-04-21T10:18:06.830Z,62.20
2018-04-21T10:19:38.643Z,64.10
2018-04-21T10:21:10.458Z,64.40
2018-04-21T10:22:42.372Z,61.80
2018-04-21T10:25:45.904Z,56.90
2018-04-21T10:27:17.716Z,58.40
2018-04-21T10:28:50.037Z,55.70
2018-04-21T10:30:21.346Z,56.60
2018-04-21T10:31:53.162Z,56.10
2018-04-21T10:33:24.983Z,53.70
2018-04-21T10:34:56.796Z,51.10
2018-04-21T10:36:28.612Z,50.60
2018-04-21T10:38:00.429Z,46.50
2018-04-21T10:39:32.246Z,50.20
2018-04-21T10:42:36.186Z,44.50
2018-04-21T10:44:07.702Z,44.50
2018-04-21T10:45:39.516Z,50.60
2018-04-21T10:47:11.336Z,50.00
2018-04-21T10:48:43.155Z,44.50
2018-04-21T10:50:14.974Z,42.40
2018-04-21T10:53:18.611Z,44.10
2018-04-21T10:54:50.582Z,36.30
2018-04-21T10:56:22.258Z,33.70
2018-04-21T10:59:25.891Z,26.70
2018-04-21T11:00:58.345Z,26.60
2018-04-21T11:02:29.530Z,24.50
2018-04-21T11:04:01.350Z,21.70
2018-04-21T11:05:33.173Z,22.30
2018-04-21T11:07:04.989Z,16.80
2018-04-21T11:08:36.808Z,16.20
2018-04-21T11:10:08.629Z,18.20
2018-04-21T11:13:12.269Z,16.40
2018-04-21T11:16:15.909Z,13.30
2018-04-21T11:17:48.033Z,13.60
2018-04-21T11:19:19.649Z,12.90
2018-04-21T11:20:51.369Z,13.10
2018-04-21T11:22:23.189Z,12.90
2018-04-21T11:23:55.009Z,13.40
2018-04-21T11:25:26.829Z,13.60
2018-04-21T11:26:58.651Z,13.40
2018-04-21T11:28:30.470Z,13.50
2018-04-21T11:30:02.292Z,12.70
2018-04-21T11:31:34.111Z,11.20
2018-04-21T11:33:05.940Z,12.70
2018-04-21T11:34:38.060Z,11.50
2018-04-21T11:36:09.577Z,10.40
2018-04-21T11:37:42.231Z,11.00
2018-04-21T11:39:13.216Z,10.00
2018-04-21T11:40:45.038Z,10.50
2018-04-21T11:42:16.860Z,10.30
2018-04-21T11:43:48.782Z,9.30
2018-04-21T11:45:20.503Z,9.30
2018-04-21T11:46:52.325Z,8.90
2018-04-21T11:48:24.152Z,8.60
2018-04-21T11:49:56.173Z,8.50
2018-04-21T11:51:28.096Z,6.60
2018-04-21T11:52:59.616Z,7.30
2018-04-21T11:54:31.438Z,7.70
2018-04-21T11:56:03.359Z,8.00
2018-04-21T11:57:35.081Z,7.70
2018-04-21T11:59:06.907Z,8.30
2018-04-21T12:00:38.724Z,8.00
2018-04-21T12:02:10.547Z,7.10
2018-04-21T12:03:42.571Z,5.20
2018-04-21T12:05:14.191Z,4.10
2018-04-21T12:06:46.215Z,4.10
2018-04-21T12:08:17.835Z,4.10
2018-04-21T12:09:49.657Z,2.80
2018-04-21T12:11:21.479Z,3.30
2018-04-21T12:12:53.300Z,2.80
2018-04-21T12:14:25.326Z,3.00
2018-04-21T12:15:56.945Z,2.80
2018-04-21T12:17:28.768Z,2.30
2018-04-21T12:19:00.622Z,2.50
2018-04-21T12:22:04.538Z,2.60
2018-04-21T12:25:07.876Z,2.40
2018-04-21T12:26:39.701Z,1.80
2018-04-21T12:28:11.520Z,1.80
2018-04-21T12:29:43.354Z,1.80
2018-04-21T12:31:15.165Z,1.80
2018-04-21T12:32:46.987Z,1.80
2018-04-21T12:34:18.915Z,1.50
2018-04-21T12:35:50.631Z,1.60
2018-04-21T12:37:22.454Z,1.70
2018-04-21T12:38:54.480Z,1.50
2018-04-21T12:41:57.927Z,1.50
2018-04-21T12:43:30.274Z,1.50
2018-04-21T12:45:01.568Z,1.50
2018-04-21T12:46:33.389Z,1.50
2018-04-21T12:48:05.212Z,1.50
2018-04-21T12:49:37.039Z,1.80
2018-04-21T12:51:08.858Z,1.50
2018-04-21T12:52:40.683Z,1.70
2018-04-21T12:54:13.056Z,1.70
2018-04-21T12:57:16.151Z,1.70
2018-04-21T12:58:48.177Z,1.80
2018-04-21T13:00:20.162Z,1.70
2018-04-21T13:01:51.628Z,1.60
2018-04-21T13:03:23.449Z,1.70
2018-04-21T13:04:55.472Z,1.80
2018-04-21T13:06:27.095Z,2.30
2018-04-21T13:07:58.916Z,2.00
2018-04-21T13:09:30.740Z,2.00
2018-04-21T13:11:02.766Z,1.90
2018-04-21T13:14:06.514Z,1.60
2018-04-21T13:17:09.858Z,1.90
2018-04-21T13:18:41.683Z,2.00
2018-04-21T13:20:13.506Z,1.90
2018-04-21T13:21:45.330Z,1.80
2018-04-21T13:23:17.154Z,2.00
2018-04-21T13:24:48.979Z,2.30
2018-04-21T13:27:52.630Z,2.60
2018-04-21T13:29:24.449Z,1.80
2018-04-21T13:34:00.224Z,2.60
2018-04-21T13:35:32.050Z,2.80
2018-04-21T13:37:03.569Z,2.60
2018-04-21T13:38:35.392Z,2.50
2018-04-21T13:40:07.219Z,2.40
2018-04-21T13:41:39.354Z,3.00
2018-04-21T13:43:11.801Z,2.40
2018-04-21T13:44:42.691Z,2.40
2018-04-21T13:46:14.514Z,2.30
2018-04-21T13:47:46.339Z,2.40
2018-04-21T13:49:18.163Z,2.30
2018-04-21T13:52:22.118Z,2.50
2018-04-21T13:53:53.636Z,2.50
2018-04-21T13:55:25.460Z,3.00
2018-04-21T13:56:57.815Z,2.90
2018-04-21T13:58:29.107Z,2.60
2018-04-21T14:00:00.934Z,2.80
2018-04-21T14:01:32.756Z,3.10
2018-04-21T14:03:04.580Z,2.90
2018-04-21T14:06:08.580Z,3.10
2018-04-21T14:09:11.882Z,2.90
2018-04-21T14:10:44.007Z,3.50
2018-04-21T14:12:15.626Z,2.90
2018-04-21T14:13:47.350Z,3.20
2018-04-21T14:15:19.178Z,3.00
2018-04-21T14:16:50.998Z,3.00
2018-04-21T14:18:22.823Z,3.30
2018-04-21T14:19:54.647Z,3.20
2018-04-21T14:21:26.476Z,2.90
2018-04-21T14:22:58.501Z,3.30
2018-04-21T14:24:30.423Z,3.10
2018-04-21T14:26:02.462Z,3.20
2018-04-21T14:27:34.301Z,3.30
2018-04-21T14:29:05.601Z,3.40
2018-04-21T14:30:37.520Z,3.40
2018-04-21T14:32:09.245Z,3.20
2018-04-21T14:33:41.073Z,3.20
2018-04-21T14:35:13.111Z,3.10
2018-04-21T14:36:44.721Z,3.30
2018-04-21T14:38:16.546Z,3.40
2018-04-21T14:41:20.196Z,3.30
2018-04-21T14:44:24.200Z,3.70
2018-04-21T14:45:55.674Z,2.90
2018-04-21T14:47:27.501Z,3.00
2018-04-21T14:48:59.528Z,3.00
2018-04-21T14:50:31.348Z,3.10
2018-04-21T14:52:02.973Z,2.80
2018-04-21T14:53:34.800Z,3.30
2018-04-21T14:55:06.625Z,3.90
2018-04-21T14:56:38.448Z,3.60
2018-04-21T14:58:10.274Z,3.80
2018-04-21T14:59:42.101Z,3.60
2018-04-21T15:01:13.943Z,3.70
2018-04-21T15:02:46.053Z,3.30
2018-04-21T15:05:49.413Z,3.60
2018-04-21T15:07:21.227Z,3.80
2018-04-21T15:08:53.304Z,3.20
2018-04-21T15:10:24.892Z,3.80
2018-04-21T15:11:56.704Z,4.40
2018-04-21T15:13:28.537Z,3.60
2018-04-21T15:15:00.889Z,3.50
2018-04-21T15:16:32.184Z,3.40
2018-04-21T15:19:35.837Z,3.40
2018-04-21T15:21:07.863Z,3.60
2018-04-21T15:22:39.488Z,3.80
2018-04-21T15:24:11.517Z,3.30
2018-04-21T15:25:43.144Z,3.70
2018-04-21T15:27:15.069Z,3.60
2018-04-21T15:30:20.036Z,4.00
2018-04-21T15:31:50.445Z,4.30
2018-04-21T15:33:22.272Z,3.80
2018-04-21T15:34:54.402Z,4.20
2018-04-21T15:36:25.928Z,3.10
2018-04-21T15:37:57.755Z,3.60
2018-04-21T15:39:29.581Z,4.60
2018-04-21T15:41:01.405Z,4.30
2018-04-21T15:42:33.232Z,3.50
2018-04-21T15:44:05.060Z,3.80
2018-04-21T15:45:36.988Z,3.80
2018-04-21T15:47:08.717Z,4.00
2018-04-21T15:48:40.541Z,4.40
2018-04-21T15:50:12.573Z,4.00
2018-04-21T15:51:44.496Z,4.20
2018-04-21T15:53:16.022Z,3.40
2018-04-21T15:54:47.894Z,3.90
2018-04-21T15:56:19.673Z,3.70
2018-04-21T15:57:51.501Z,4.30
2018-04-21T15:59:23.326Z,4.10
2018-04-21T16:00:55.153Z,3.50
2018-04-21T16:02:26.980Z,3.60
2018-04-21T16:03:58.908Z,4.10
2018-04-21T16:07:02.464Z,4.20
2018-04-21T16:08:34.862Z,3.60
2018-04-21T16:10:06.649Z,4.10
2018-04-21T16:11:37.946Z,4.50
2018-04-21T16:13:10.307Z,4.40
2018-04-21T16:14:41.599Z,4.60
2018-04-21T16:16:13.425Z,4.40
2018-04-21T16:17:45.253Z,4.40
2018-04-21T16:19:17.078Z,4.30
2018-04-21T16:20:48.905Z,4.80
2018-04-21T16:22:20.937Z,4.30
2018-04-21T16:23:52.561Z,4.30
2018-04-21T16:27:02.792Z,5.20
2018-04-21T16:29:59.870Z,3.80
2018-04-21T16:31:31.701Z,4.70
2018-04-21T16:33:03.525Z,4.50
2018-04-21T16:34:35.352Z,4.60
2018-04-21T16:36:07.177Z,4.90
2018-04-21T16:37:39.206Z,5.00
2018-04-21T16:39:10.829Z,4.80
2018-04-21T16:42:14.730Z,6.80
2018-04-21T16:43:46.508Z,7.30
2018-04-21T16:45:18.332Z,7.30
2018-04-21T16:46:50.157Z,7.20
2018-04-21T16:48:21.779Z,8.50
2018-04-21T16:49:53.604Z,8.00
2018-04-21T16:51:25.427Z,9.20
2018-04-21T16:54:29.330Z,11.40
2018-04-21T16:56:00.903Z,10.20
2018-04-21T16:57:32.725Z,11.30
2018-04-21T16:59:04.550Z,11.10
2018-04-21T17:00:36.774Z,11.00
2018-04-21T17:02:08.193Z,10.80
2018-04-21T17:05:12.144Z,10.40
2018-04-21T17:06:43.663Z,11.00
2018-04-21T17:08:15.486Z,10.90
2018-04-21T17:11:19.132Z,10.90
2018-04-21T17:12:51.261Z,10.80
2018-04-21T17:14:22.980Z,10.70
2018-04-21T17:15:54.602Z,10.80
2018-04-21T17:17:26.422Z,11.40
2018-04-21T17:18:58.547Z,10.50
2018-04-21T17:22:01.890Z,9.90
2018-04-21T17:23:33.718Z,10.20
2018-04-21T17:25:05.637Z,10.80
2018-04-21T17:26:37.359Z,10.10
2018-04-21T17:28:09.186Z,9.50
2018-04-21T17:31:12.836Z,9.50
2018-04-21T17:32:44.657Z,9.90
2018-04-21T17:34:16.533Z,10.50
2018-04-21T17:35:48.608Z,9.30
2018-04-21T17:37:20.229Z,10.00
2018-04-21T17:40:24.082Z,9.50
2018-04-21T17:41:55.602Z,10.20
2018-04-21T17:43:27.426Z,10.00
2018-04-21T17:44:59.454Z,10.90
2018-04-21T17:46:31.075Z,11.00
2018-04-21T17:48:02.967Z,10.00
2018-04-21T17:49:34.725Z,10.20
2018-04-21T17:51:06.549Z,10.30
2018-04-21T17:52:38.373Z,11.80
2018-04-21T17:54:10.198Z,12.00
2018-04-21T17:57:13.956Z,11.90
2018-04-21T17:58:45.672Z,11.60
2018-04-21T18:00:17.495Z,12.60
2018-04-21T18:01:49.321Z,12.20
2018-04-21T18:03:21.144Z,12.00
2018-04-21T18:06:24.796Z,12.30
2018-04-21T18:07:56.617Z,13.50
2018-04-21T18:09:28.442Z,13.20
2018-04-21T18:11:00.265Z,13.30
2018-04-21T18:12:32.090Z,12.90
2018-04-21T18:14:03.913Z,13.00
2018-04-21T18:15:35.868Z,13.20
2018-04-21T18:17:07.560Z,14.00
2018-04-21T18:18:39.383Z,14.20
2018-04-21T18:20:11.207Z,15.60
2018-04-21T18:21:43.031Z,16.30
2018-04-21T18:23:14.854Z,15.40
2018-04-21T18:26:18.501Z,15.70
2018-04-21T18:27:50.335Z,15.50
2018-04-21T18:29:22.451Z,16.60
2018-04-21T18:30:54.011Z,16.50
2018-04-21T18:32:26.324Z,15.60
2018-04-21T18:33:57.717Z,14.90
2018-04-21T18:35:29.442Z,15.60
2018-04-21T18:37:01.263Z,15.40
2018-04-21T18:38:33.086Z,15.40
2018-04-21T18:40:04.910Z,15.60
2018-04-21T18:43:08.554Z,15.70
2018-04-21T18:44:40.681Z,16.40
2018-04-21T18:46:12.202Z,16.10
2018-04-21T18:47:44.229Z,16.70
2018-04-21T18:49:15.844Z,16.50
2018-04-21T18:50:47.666Z,16.50
2018-04-21T18:52:19.701Z,16.10
2018-04-21T18:53:51.309Z,16.10
2018-04-21T18:55:23.134Z,15.60
2018-04-21T18:58:26.876Z,17.70
2018-04-21T19:01:30.421Z,17.40
2018-04-21T19:03:02.242Z,16.70
2018-04-21T19:06:05.882Z,17.50
2018-04-21T19:07:37.708Z,16.50
2018-04-21T19:09:09.525Z,15.90
2018-04-21T19:10:41.345Z,17.30
2018-04-21T19:12:13.267Z,17.80
2018-04-21T19:15:16.809Z,16.70
2018-04-21T19:16:48.628Z,17.10
2018-04-21T19:18:20.452Z,18.40
2018-04-21T19:19:52.336Z,17.70
2018-04-21T19:21:24.091Z,17.60
2018-04-21T19:22:55.912Z,17.30
2018-04-21T19:24:27.731Z,17.00
2018-04-21T19:25:59.554Z,18.80
2018-04-21T19:27:31.372Z,18.50
2018-04-21T19:29:03.192Z,18.00
2018-04-21T19:30:35.234Z,17.60
2018-04-21T19:32:06.831Z,17.40
2018-04-21T19:33:38.649Z,17.50
2018-04-21T19:35:10.470Z,16.80
2018-04-21T19:36:42.287Z,16.70
2018-04-21T19:38:14.111Z,17.90
2018-04-21T19:39:45.927Z,18.00
2018-04-21T19:41:18.048Z,17.90
2018-04-21T19:42:49.564Z,18.70
2018-04-21T19:44:21.383Z,19.30
2018-04-21T19:45:53.200Z,19.80
2018-04-21T19:47:25.018Z,19.60
2018-04-21T19:48:56.937Z,19.90
2018-04-21T19:50:28.665Z,20.00
2018-04-21T19:52:00.475Z,20.90
2018-04-21T19:53:32.293Z,19.80
2018-04-21T19:55:04.110Z,20.70
2018-04-21T19:56:36.723Z,19.70
2018-04-21T19:58:07.747Z,20.30
2018-04-21T20:01:11.685Z,18.90
2018-04-21T20:02:43.200Z,19.70
2018-04-21T20:04:15.018Z,19.80
2018-04-21T20:05:46.838Z,20.80
2018-04-21T20:07:18.754Z,20.30
2018-04-21T20:08:50.473Z,19.70
2018-04-21T20:10:22.286Z,22.60
2018-04-21T20:11:54.103Z,23.30
2018-04-21T20:13:25.921Z,21.70
2018-04-21T20:14:58.046Z,20.40
2018-04-21T20:16:29.623Z,21.40
2018-04-21T20:18:01.370Z,22.60
2018-04-21T20:19:33.185Z,22.20
2018-04-21T20:21:05.005Z,24.60
2018-04-21T20:22:36.816Z,23.80
2018-04-21T20:25:40.750Z,23.10
2018-04-21T20:27:12.263Z,24.30
2018-04-21T20:28:44.080Z,23.90
2018-04-21T20:30:15.894Z,26.00
2018-04-21T20:31:47.838Z,24.70
2018-04-21T20:33:19.525Z,26.10
2018-04-21T20:34:51.869Z,24.70
2018-04-21T20:36:23.203Z,27.40
2018-04-21T20:37:54.968Z,24.70
2018-04-21T20:39:26.783Z,24.60
2018-04-21T20:40:58.803Z,25.10
2018-04-21T20:42:30.412Z,23.50
2018-04-21T20:44:02.326Z,24.30
2018-04-21T20:45:34.040Z,22.10
2018-04-21T20:47:05.855Z,23.50
2018-04-21T20:48:37.670Z,23.70
2018-04-21T20:50:09.483Z,22.90
2018-04-21T20:51:41.298Z,23.30
2018-04-21T20:53:13.112Z,24.00
2018-04-21T20:54:44.926Z,23.20
2018-04-21T20:56:16.741Z,23.40
2018-04-21T20:57:48.555Z,22.60
2018-04-21T20:59:20.388Z,24.00